createdAt,value
2022-09-05T00:02:35.005Z,12.17
2022-09-05T00:05:35.197Z,12.01
2022-09-05T00:08:58.127Z,12.23
2022-09-05T00:11:50.050Z,12.11
2022-09-05T00:15:17.609Z,12.13
2022-09-05T00:22:12.881Z,12.18
2022-09-05T00:24:36.941Z,12.22
2022-09-05T00:28:32.745Z,12.11
2022-09-05T00:31:54.937Z,12.12
2022-09-05T00:35:02.804Z,12.12
2022-09-05T00:37:50.876Z,12.17
2022-09-05T00:41:05.361Z,12.18
2022-09-05T00:43:52.315Z,12.17
2022-09-05T00:46:44.838Z,12.13
2022-09-05T00:49:44.432Z,12.09
2022-09-05T00:53:06.633Z,12.00
2022-09-05T00:56:38.555Z,11.94
2022-09-05T00:59:42.056Z,11.86
2022-09-05T01:02:58.406Z,11.75
2022-09-05T01:05:59.371Z,11.75
2022-09-05T01:09:07.477Z,11.73
2022-09-05T01:12:27.971Z,11.57
2022-09-05T01:15:25.593Z,11.47
2022-09-05T01:18:35.517Z,11.61
2022-09-05T01:22:00.121Z,11.47
2022-09-05T01:25:00.452Z,11.61
2022-09-05T01:29:13.142Z,11.55
2022-09-05T01:31:25.438Z,11.75
2022-09-05T01:34:34.299Z,11.64
2022-09-05T01:37:33.452Z,11.63
2022-09-05T01:40:36.413Z,11.49
2022-09-05T01:44:06.453Z,11.60
2022-09-05T01:47:16.307Z,11.60
2022-09-05T01:50:14.923Z,11.66
2022-09-05T01:53:15.267Z,11.62
2022-09-05T01:56:38.712Z,11.60
2022-09-05T01:59:52.319Z,11.55
2022-09-05T02:03:01.513Z,11.69
2022-09-05T02:05:56.402Z,11.57
2022-09-05T02:09:00.098Z,11.56
2022-09-05T02:11:48.231Z,11.38
2022-09-05T02:14:42.714Z,11.09
2022-09-05T02:17:51.279Z,10.99
2022-09-05T02:20:43.514Z,10.87
2022-09-05T02:23:46.221Z,10.77
2022-09-05T02:26:46.902Z,10.63
2022-09-05T02:30:10.056Z,10.72
2022-09-05T02:33:04.701Z,10.65
2022-09-05T02:36:01.215Z,10.52
2022-09-05T02:43:42.406Z,10.66
2022-09-05T02:45:09.925Z,10.61
2022-09-05T02:45:50.215Z,10.56
2022-09-05T02:49:00.680Z,10.64
2022-09-05T02:57:27.197Z,10.83
2022-09-05T02:57:41.757Z,10.61
2022-09-05T02:59:09.561Z,10.67
2022-09-05T03:02:25.761Z,10.79
2022-09-05T03:05:46.168Z,10.76
2022-09-05T03:08:41.109Z,10.57
2022-09-05T03:11:48.821Z,10.51
2022-09-05T03:15:19.388Z,10.33
2022-09-05T03:18:45.708Z,10.23
2022-09-05T03:21:44.634Z,10.20
2022-09-05T03:25:02.660Z,10.36
2022-09-05T03:28:13.216Z,10.70
2022-09-05T03:31:30.046Z,10.85
2022-09-05T03:34:54.378Z,10.84
2022-09-05T03:38:04.928Z,10.62
2022-09-05T03:41:23.830Z,10.57
2022-09-05T03:44:59.786Z,10.72
2022-09-05T03:48:27.752Z,10.61
2022-09-05T03:57:06.679Z,10.63
2022-09-05T03:57:19.611Z,10.51
2022-09-05T03:58:18.086Z,10.15
2022-09-05T04:02:37.359Z,9.89
2022-09-05T04:08:11.159Z,9.85
2022-09-05T04:08:31.417Z,9.70
2022-09-05T04:11:04.214Z,9.76
2022-09-05T04:13:57.036Z,9.74
2022-09-05T04:17:08.443Z,9.91
2022-09-05T04:20:07.606Z,10.11
2022-09-05T04:23:13.080Z,10.19
2022-09-05T04:26:11.394Z,10.04
2022-09-05T04:29:35.685Z,9.91
2022-09-05T04:32:54.174Z,9.83
2022-09-05T04:35:58.146Z,9.78
2022-09-05T04:38:45.021Z,9.80
2022-09-05T04:41:39.410Z,9.78
2022-09-05T04:44:48.877Z,9.89
2022-09-05T04:47:40.076Z,9.88
2022-09-05T04:50:26.944Z,9.88
2022-09-05T04:53:45.336Z,9.95
2022-09-05T04:56:35.230Z,10.00
2022-09-05T05:01:46.030Z,10.07
2022-09-05T05:06:10.494Z,10.17
2022-09-05T05:06:16.273Z,10.34
2022-09-05T05:09:00.739Z,10.42
2022-09-05T05:18:02.135Z,10.56
2022-09-05T05:18:13.756Z,10.67
2022-09-05T05:18:37.643Z,10.63
2022-09-05T05:21:33.469Z,10.85
2022-09-05T05:24:30.596Z,11.00
2022-09-05T05:27:16.331Z,11.13
2022-09-05T05:30:06.896Z,11.18
2022-09-05T05:32:54.839Z,11.25
2022-09-05T05:35:48.405Z,11.28
2022-09-05T05:38:34.366Z,11.31
2022-09-05T05:41:26.721Z,11.34
2022-09-05T05:44:26.242Z,11.39
2022-09-05T05:47:31.415Z,11.37
2022-09-05T05:50:49.171Z,11.42
2022-09-05T05:54:02.028Z,11.50
2022-09-05T05:57:20.572Z,11.49
2022-09-05T06:00:16.023Z,11.59
2022-09-05T06:03:29.045Z,11.74
2022-09-05T06:06:31.826Z,11.84
2022-09-05T06:13:22.627Z,11.85
2022-09-05T06:14:59.472Z,11.76
2022-09-05T06:16:56.903Z,11.88
2022-09-05T06:22:07.165Z,11.88
2022-09-05T06:23:38.804Z,12.00
2022-09-05T06:26:44.831Z,12.09
2022-09-05T06:30:14.785Z,12.16
2022-09-05T06:33:29.752Z,12.28
2022-09-05T06:36:25.339Z,12.40
2022-09-05T06:39:36.345Z,12.50
2022-09-05T06:42:42.897Z,12.67
2022-09-05T06:46:02.738Z,12.78
2022-09-05T06:49:29.914Z,13.19
2022-09-05T06:52:45.235Z,13.39
2022-09-05T06:55:50.350Z,13.72
2022-09-05T06:59:13.583Z,13.94
2022-09-05T07:02:14.361Z,14.21
2022-09-05T07:05:38.910Z,14.72
2022-09-05T07:09:11.608Z,15.03
2022-09-05T07:12:18.988Z,14.77
2022-09-05T07:15:35.807Z,15.03
2022-09-05T07:18:40.636Z,14.79
2022-09-05T07:21:35.731Z,14.52
2022-09-05T07:24:54.287Z,14.57
2022-09-05T07:27:49.852Z,14.27
2022-09-05T07:30:49.039Z,14.34
2022-09-05T07:33:39.140Z,14.26
2022-09-05T07:36:32.747Z,14.39
2022-09-05T07:39:29.108Z,14.58
2022-09-05T07:42:24.755Z,14.32
2022-09-05T07:45:14.740Z,14.56
2022-09-05T07:48:03.917Z,14.58
2022-09-05T07:56:41.217Z,14.62
2022-09-05T07:57:00.665Z,14.20
2022-09-05T07:57:30.156Z,14.38
2022-09-05T08:00:26.466Z,14.35
2022-09-05T08:03:15.175Z,14.40
2022-09-05T08:06:06.284Z,14.47
2022-09-05T08:09:39.966Z,14.59
2022-09-05T08:13:00.607Z,14.47
2022-09-05T08:16:15.223Z,14.64
2022-09-05T08:19:24.333Z,14.54
2022-09-05T08:22:20.317Z,14.80
2022-09-05T08:25:17.189Z,15.36
2022-09-05T08:28:24.989Z,15.68
2022-09-05T08:31:47.233Z,16.19
2022-09-05T08:34:54.579Z,16.06
2022-09-05T08:37:43.162Z,16.31
2022-09-05T08:40:41.386Z,16.42
2022-09-05T08:46:35.773Z,16.72
2022-09-05T08:46:53.945Z,15.82
2022-09-05T08:50:08.428Z,15.57
2022-09-05T08:53:46.299Z,16.05
2022-09-05T08:57:17.388Z,17.15
2022-09-05T09:00:20.091Z,16.83
2022-09-05T09:03:29.486Z,15.43
2022-09-05T09:06:40.023Z,15.31
2022-09-05T09:09:46.934Z,15.04
2022-09-05T09:12:51.217Z,15.74
2022-09-05T09:16:01.094Z,15.82
2022-09-05T09:18:49.769Z,15.07
2022-09-05T09:21:47.066Z,15.33
2022-09-05T09:25:15.898Z,15.50
2022-09-05T09:28:49.464Z,15.47
2022-09-05T09:31:48.643Z,15.74
2022-09-05T09:34:59.317Z,15.81
2022-09-05T09:37:55.311Z,16.03
2022-09-05T09:41:21.474Z,16.01
2022-09-05T09:44:22.200Z,16.18
2022-09-05T09:47:15.182Z,16.33
2022-09-05T09:50:22.400Z,16.41
2022-09-05T09:53:37.011Z,15.85
2022-09-05T09:56:29.262Z,16.20
2022-09-05T09:59:23.876Z,16.48
2022-09-05T10:04:31.286Z,16.53
2022-09-05T10:10:44.274Z,16.65
2022-09-05T10:10:55.200Z,16.58
2022-09-05T10:12:30.748Z,15.83
2022-09-05T10:15:33.482Z,16.26
2022-09-05T10:18:49.017Z,16.37
2022-09-05T10:25:34.312Z,17.70
2022-09-05T10:28:39.246Z,19.65
2022-09-05T10:33:16.968Z,21.35
2022-09-05T10:35:22.599Z,20.36
2022-09-05T10:38:34.427Z,19.93
2022-09-05T10:41:27.349Z,17.43
2022-09-05T10:44:14.041Z,18.67
2022-09-05T10:47:17.353Z,18.38
2022-09-05T10:50:31.225Z,17.71
2022-09-05T10:53:26.347Z,17.51
2022-09-05T10:56:21.527Z,16.66
2022-09-05T11:01:56.048Z,17.70
2022-09-05T11:02:43.873Z,18.55
2022-09-05T11:05:40.018Z,18.60
2022-09-05T11:08:53.865Z,17.75
2022-09-05T11:11:46.480Z,17.14
2022-09-05T11:14:31.826Z,17.08
2022-09-05T11:17:39.820Z,17.32
2022-09-05T11:20:35.856Z,16.91
2022-09-05T11:23:47.572Z,16.04
2022-09-05T11:27:25.148Z,16.98
2022-09-05T11:30:06.799Z,16.36
2022-09-05T11:38:55.130Z,16.42
2022-09-05T11:40:07.458Z,16.48
2022-09-05T11:40:57.789Z,16.82
2022-09-05T11:44:23.077Z,16.49
2022-09-05T11:47:29.789Z,16.39
2022-09-05T11:50:38.793Z,16.36
2022-09-05T11:53:27.315Z,16.22
2022-09-05T11:56:35.738Z,16.06
2022-09-05T12:00:31.123Z,16.28
2022-09-05T12:04:03.669Z,16.53
2022-09-05T12:07:03.246Z,16.70
2022-09-05T12:10:46.936Z,16.83
2022-09-05T12:13:48.656Z,16.81
2022-09-05T12:16:49.586Z,16.55
2022-09-05T12:20:06.705Z,16.22
2022-09-05T12:24:13.605Z,16.09
2022-09-05T12:27:42.467Z,16.09
2022-09-05T12:31:00.750Z,15.81
2022-09-05T12:36:06.371Z,15.85
2022-09-05T12:40:48.175Z,15.88
2022-09-05T12:41:34.767Z,15.86
2022-09-05T12:44:28.919Z,15.70
2022-09-05T12:46:48.094Z,15.91
2022-09-05T12:49:36.909Z,15.87
2022-09-05T12:52:42.528Z,15.93
2022-09-05T12:55:36.592Z,16.04
2022-09-05T13:03:05.943Z,15.82
2022-09-05T13:03:08.784Z,15.89
2022-09-05T13:04:59.705Z,15.88
2022-09-05T13:07:58.345Z,15.79
2022-09-05T13:14:50.040Z,15.78
2022-09-05T13:14:52.473Z,15.67
2022-09-05T13:17:09.068Z,15.70
2022-09-05T13:19:55.857Z,15.74
2022-09-05T13:22:48.559Z,15.72
2022-09-05T13:25:37.248Z,15.61
2022-09-05T13:28:26.709Z,15.60
2022-09-05T13:37:59.668Z,15.73
2022-09-05T13:38:16.291Z,15.87
2022-09-05T13:38:17.824Z,15.86
2022-09-05T13:40:58.234Z,15.80
2022-09-05T13:43:44.318Z,15.80
2022-09-05T13:46:57.409Z,15.98
2022-09-05T13:50:17.527Z,16.34
2022-09-05T13:53:38.030Z,16.57
2022-09-05T13:56:33.201Z,16.55
2022-09-05T13:59:21.771Z,16.68
2022-09-05T14:03:29.983Z,16.51
2022-09-05T14:06:46.575Z,16.47
2022-09-05T14:09:41.867Z,16.50
2022-09-05T14:12:48.726Z,16.13
2022-09-05T14:15:59.121Z,16.08
2022-09-05T14:19:06.940Z,16.21
2022-09-05T14:21:52.770Z,16.51
2022-09-05T14:24:45.590Z,16.46
2022-09-05T14:27:35.451Z,16.57
2022-09-05T14:36:46.522Z,16.69
2022-09-05T14:37:41.084Z,16.45
2022-09-05T14:37:50.299Z,15.94
2022-09-05T14:39:58.525Z,16.17
2022-09-05T14:42:44.775Z,15.75
2022-09-05T14:45:49.818Z,15.87
2022-09-05T14:48:17.864Z,15.89
2022-09-05T14:51:00.345Z,15.90
2022-09-05T14:56:59.762Z,15.68
2022-09-05T15:02:42.986Z,15.48
2022-09-05T15:02:51.984Z,15.46
2022-09-05T15:05:28.922Z,15.55
2022-09-05T15:08:08.399Z,15.53
2022-09-05T15:12:20.126Z,15.32
2022-09-05T15:14:06.472Z,15.35
2022-09-05T15:16:38.734Z,15.20
2022-09-05T15:19:09.991Z,15.11
2022-09-05T15:21:41.518Z,15.01
2022-09-05T15:24:21.156Z,14.92
2022-09-05T15:26:53.293Z,14.71
2022-09-05T15:29:22.594Z,14.61
2022-09-05T15:31:53.261Z,14.68
2022-09-05T15:34:38.368Z,14.78
2022-09-05T15:37:22.148Z,14.84
2022-09-05T15:40:23.029Z,14.72
2022-09-05T15:42:57.998Z,14.98
2022-09-05T15:45:32.883Z,15.02
2022-09-05T15:48:18.238Z,15.03
2022-09-05T15:50:52.818Z,14.82
2022-09-05T15:53:29.021Z,14.87
2022-09-05T15:56:03.157Z,14.79
2022-09-05T15:58:53.649Z,14.89
2022-09-05T16:01:49.911Z,14.87
2022-09-05T16:10:27.773Z,14.76
2022-09-05T16:10:38.968Z,14.66
2022-09-05T16:10:40.967Z,14.66
2022-09-05T16:12:50.629Z,14.59
2022-09-05T16:20:31.611Z,14.47
2022-09-05T16:23:18.738Z,14.36
2022-09-05T16:23:23.942Z,14.43
2022-09-05T16:24:15.721Z,14.44
2022-09-05T16:26:49.016Z,14.41
2022-09-05T16:29:28.245Z,14.33
2022-09-05T16:32:05.537Z,14.35
2022-09-05T16:34:33.987Z,14.31
2022-09-05T16:37:09.931Z,14.28
2022-09-05T16:39:46.666Z,14.39
2022-09-05T16:42:46.494Z,14.26
2022-09-05T16:45:17.825Z,14.18
2022-09-05T16:48:04.830Z,14.05
2022-09-05T16:50:50.057Z,14.14
2022-09-05T16:53:58.222Z,13.94
2022-09-05T16:56:46.041Z,13.90
2022-09-05T16:59:20.558Z,13.92
2022-09-05T17:02:05.857Z,13.88
2022-09-05T17:04:37.274Z,13.83
2022-09-05T17:07:29.856Z,13.73
2022-09-05T17:10:16.561Z,13.66
2022-09-05T17:12:44.274Z,13.81
2022-09-05T17:15:16.887Z,13.69
2022-09-05T17:18:19.027Z,13.54
2022-09-05T17:20:37.122Z,13.47
2022-09-05T17:26:48.905Z,13.56
2022-09-05T17:29:34.291Z,13.28
2022-09-05T17:32:48.216Z,13.37
2022-09-05T17:35:43.916Z,13.31
2022-09-05T17:38:36.821Z,13.29
2022-09-05T17:41:34.763Z,13.26
2022-09-05T17:44:29.419Z,13.02
2022-09-05T17:47:20.713Z,12.84
2022-09-05T17:50:16.811Z,12.91
2022-09-05T17:53:02.709Z,12.94
2022-09-05T17:55:50.150Z,12.99
2022-09-05T17:58:24.531Z,12.96
2022-09-05T18:00:52.004Z,12.95
2022-09-05T18:03:45.923Z,13.04
2022-09-05T18:06:16.538Z,13.02
2022-09-05T18:08:47.981Z,12.94
2022-09-05T18:11:27.277Z,12.90
2022-09-05T18:14:01.585Z,12.95
2022-09-05T18:17:35.903Z,12.85
2022-09-05T18:19:46.143Z,12.80
2022-09-05T18:22:26.068Z,12.77
2022-09-05T18:25:30.747Z,12.86
2022-09-05T18:28:20.530Z,12.77
2022-09-05T18:30:50.034Z,12.75
2022-09-05T18:33:56.284Z,12.78
2022-09-05T18:36:25.863Z,12.72
2022-09-05T18:39:24.258Z,12.79
2022-09-05T18:42:14.780Z,12.86
2022-09-05T18:44:59.653Z,12.85
2022-09-05T18:47:51.316Z,12.78
2022-09-05T18:50:32.285Z,12.79
2022-09-05T18:53:08.961Z,12.78
2022-09-05T18:56:20.336Z,12.76
2022-09-05T18:58:58.307Z,12.77
2022-09-05T19:01:42.015Z,12.86
2022-09-05T19:04:34.511Z,12.84
2022-09-05T19:07:22.289Z,12.88
2022-09-05T19:10:36.254Z,12.84
2022-09-05T19:13:16.069Z,12.81
2022-09-05T19:16:43.077Z,12.81
2022-09-05T19:19:10.606Z,12.80
2022-09-05T19:22:05.529Z,12.71
2022-09-05T19:24:45.550Z,12.74
2022-09-05T19:29:19.080Z,12.62
2022-09-05T19:36:56.935Z,12.70
2022-09-05T19:37:05.766Z,12.71
2022-09-05T19:37:07.380Z,12.68
2022-09-05T19:39:40.562Z,12.64
2022-09-05T19:47:35.281Z,12.66
2022-09-05T19:47:39.121Z,12.46
2022-09-05T19:47:55.869Z,12.46
2022-09-05T19:50:12.875Z,12.39
2022-09-05T19:52:40.919Z,12.33
2022-09-05T19:55:22.451Z,12.48
2022-09-05T19:58:18.482Z,12.55
2022-09-05T20:01:00.856Z,12.55
2022-09-05T20:03:42.272Z,12.46
2022-09-05T20:06:29.592Z,12.42
2022-09-05T20:09:16.211Z,12.27
2022-09-05T20:11:56.158Z,11.96
2022-09-05T20:14:33.505Z,11.71
2022-09-05T20:17:22.465Z,11.46
2022-09-05T20:20:09.061Z,11.25
2022-09-05T20:22:48.746Z,11.21
2022-09-05T20:25:36.079Z,11.15
2022-09-05T20:28:10.776Z,11.07
2022-09-05T20:31:00.274Z,10.99
2022-09-05T20:33:34.593Z,10.95
2022-09-05T20:39:26.539Z,11.06
2022-09-05T20:43:16.383Z,10.97
2022-09-05T20:43:18.013Z,11.05
2022-09-05T20:44:38.001Z,10.94
2022-09-05T20:54:00.950Z,10.92
2022-09-05T20:54:25.178Z,11.24
2022-09-05T20:54:26.768Z,11.05
2022-09-05T20:56:22.716Z,11.55
2022-09-05T20:58:51.737Z,11.67
2022-09-05T21:01:23.282Z,11.49
2022-09-05T21:04:02.363Z,11.49
2022-09-05T21:06:37.691Z,11.47
2022-09-05T21:09:25.143Z,11.36
2022-09-05T21:11:59.932Z,11.35
2022-09-05T21:14:29.036Z,11.28
2022-09-05T21:17:00.875Z,11.06
2022-09-05T21:19:36.418Z,10.90
2022-09-05T21:22:05.412Z,10.74
2022-09-05T21:24:32.747Z,10.77
2022-09-05T21:27:22.004Z,10.69
2022-09-05T21:29:58.538Z,10.63
2022-09-05T21:32:31.871Z,10.65
2022-09-05T21:35:33.582Z,10.63
2022-09-05T21:37:54.405Z,10.52
2022-09-05T21:40:22.477Z,10.47
2022-09-05T21:46:53.502Z,10.41
2022-09-05T21:47:39.161Z,10.43
2022-09-05T21:48:24.616Z,10.42
2022-09-05T21:50:58.388Z,10.31
2022-09-05T21:59:14.386Z,10.31
2022-09-05T21:59:33.301Z,10.27
2022-09-05T21:59:36.844Z,10.22
2022-09-05T22:02:08.506Z,10.27
2022-09-05T22:04:40.926Z,10.39
2022-09-05T22:07:25.016Z,10.38
2022-09-05T22:10:05.746Z,10.36
2022-09-05T22:12:38.665Z,10.38
2022-09-05T22:15:27.881Z,10.34
2022-09-05T22:18:16.780Z,10.27
2022-09-05T22:21:01.369Z,10.21
2022-09-05T22:23:37.136Z,10.22
2022-09-05T22:26:08.017Z,10.15
2022-09-05T22:28:38.754Z,10.20
2022-09-05T22:31:07.551Z,10.21
2022-09-05T22:33:36.218Z,10.21
2022-09-05T22:36:04.578Z,10.22
2022-09-05T22:38:32.645Z,10.27
2022-09-05T22:41:00.136Z,10.25
2022-09-05T22:43:27.430Z,10.25
2022-09-05T22:45:56.490Z,10.34
2022-09-05T22:48:24.312Z,10.42
2022-09-05T22:50:52.321Z,10.36
2022-09-05T22:53:19.792Z,10.28
2022-09-05T22:55:47.058Z,10.30
2022-09-05T22:58:15.905Z,10.54
2022-09-05T23:00:44.837Z,10.74
2022-09-05T23:03:12.284Z,10.66
2022-09-05T23:05:39.463Z,10.57
2022-09-05T23:08:07.273Z,10.82
2022-09-05T23:10:36.087Z,10.83
2022-09-05T23:13:08.144Z,10.87
2022-09-05T23:15:36.705Z,10.93
2022-09-05T23:18:04.275Z,11.05
2022-09-05T23:20:32.717Z,11.24
2022-09-05T23:23:04.292Z,11.31
2022-09-05T23:25:32.113Z,11.28
2022-09-05T23:27:59.388Z,11.28
2022-09-05T23:30:26.856Z,11.23
2022-09-05T23:32:54.115Z,11.25
2022-09-05T23:35:21.439Z,11.23
2022-09-05T23:37:49.124Z,11.18
2022-09-05T23:40:20.130Z,11.20
2022-09-05T23:42:55.765Z,11.24
2022-09-05T23:45:24.357Z,11.09
2022-09-05T23:47:52.055Z,11.06
2022-09-05T23:50:20.456Z,11.02
2022-09-05T23:52:49.166Z,10.91
2022-09-05T23:55:19.827Z,10.72
2022-09-05T23:57:47.243Z,10.73
